Time;durP1;ratioP1;P1;durP2;ratioP2;P2;SDS_P1;SDS_P2;PMS_P1;PMS_P2;Temp;Humidity;BMP_temperature;BMP_pressure;BME280_temperature;BME280_humidity;BME280_pressure;Samples;Min_cycle;Max_cycle;Signal;HPM_P1;HPM_P2
2022/08/11 00:01:54;;;;;;;3.63;2.95;;;;;;;24.17;100.00;61586.06;4972639;28;20047;-80
2022/08/11 00:04:23;;;;;;;4.00;2.88;;;;;;;-144.47;100.00;61586.06;4972655;28;20027;-79
2022/08/11 00:06:50;;;;;;;3.00;2.67;;;;;;;-144.47;100.00;61586.06;4976490;28;20035;-80
2022/08/11 00:09:20;;;;;;;3.70;3.08;;;;;;;-144.47;100.00;61586.06;4976397;28;20042;-80
2022/08/11 00:11:52;;;;;;;3.17;2.92;;;;;;;-144.47;100.00;61586.06;4975509;28;20034;-80
2022/08/11 00:14:27;;;;;;;9.82;3.58;;;;;;;-144.47;100.00;61586.06;4974698;28;20043;-80
2022/08/11 00:17:14;;;;;;;5.43;3.10;;;;;;;24.41;100.00;61586.06;4975278;28;20039;-80
2022/08/11 00:19:44;;;;;;;5.43;3.80;;;;;;;-144.47;100.00;61586.06;4973198;28;20407;-80
2022/08/11 00:22:11;;;;;;;5.75;3.22;;;;;;;-144.47;100.00;61586.06;4967098;28;20067;-80
2022/08/11 00:24:40;;;;;;;5.60;3.63;;;;;;;-144.47;100.00;61586.06;4977553;28;20475;-79
2022/08/11 00:27:07;;;;;;;9.13;3.55;;;;;;;-144.47;100.00;61586.06;4974704;28;20427;-80
2022/08/11 00:29:33;;;;;;;3.72;2.92;;;;;;;-144.47;100.00;61586.06;4973779;28;20367;-80
2022/08/11 00:32:01;;;;;;;3.40;3.10;;;;;;;-144.47;100.00;61586.06;4976292;28;20039;-80
2022/08/11 00:34:29;;;;;;;5.75;3.25;;;;;;;-144.47;100.00;61586.06;4966931;28;20487;-80
2022/08/11 00:37:18;;;;;;;9.65;3.30;;;;;;;-144.47;100.00;61586.06;4975924;28;20038;-79
2022/08/11 00:39:52;;;;;;;3.90;3.40;;;;;;;-144.47;100.00;61586.06;4973138;28;20066;-80
2022/08/11 00:42:37;;;;;;;12.13;4.00;;;;;;;-144.47;100.00;61586.06;4973645;28;20031;-79
2022/08/11 00:45:09;;;;;;;4.35;3.55;;;;;;;-144.47;100.00;61586.06;4977153;28;20074;-79
2022/08/11 00:48:03;;;;;;;6.32;3.83;;;;;;;-144.47;100.00;61586.06;4973344;28;20043;-80
2022/08/11 00:50:40;;;;;;;4.57;3.38;;;;;;;62.74;100.00;61586.06;4974779;28;20036;-79
2022/08/11 00:53:31;;;;;;;7.60;3.75;;;;;;;62.74;100.00;61586.06;4972279;28;20041;-80
2022/08/11 00:56:08;;;;;;;3.78;3.25;;;;;;;62.74;100.00;61586.06;4974826;28;20039;-80
2022/08/11 00:59:13;;;;;;;6.88;3.70;;;;;;;62.74;100.00;61586.06;4971387;28;20031;-80
2022/08/11 01:01:55;;;;;;;4.75;3.50;;;;;;;104.25;100.00;61586.06;4974382;28;20034;-79
2022/08/11 01:05:03;;;;;;;6.53;3.45;;;;;;;62.74;100.00;61586.06;4974154;28;20390;-79
2022/08/11 01:07:55;;;;;;;5.82;3.38;;;;;;;62.74;100.00;61586.06;4974476;28;20117;-79
2022/08/11 01:10:26;;;;;;;4.72;3.70;;;;;;;62.74;100.00;61586.06;4975228;28;20085;-79
2022/08/11 01:13:28;;;;;;;6.00;3.75;;;;;;;62.74;100.00;61586.06;4953169;28;20536;-80
2022/08/11 01:16:30;;;;;;;3.97;3.60;;;;;;;62.74;100.00;61586.06;4953407;28;20653;-79
2022/08/11 01:19:22;;;;;;;4.00;3.63;;;;;;;62.74;100.00;61586.06;4907385;29;20056;-80
2022/08/11 01:22:23;;;;;;;5.03;2.90;;;;;;;62.74;100.00;61586.06;4955680;28;20122;-79
2022/08/11 01:25:26;;;;;;;7.13;3.15;;;;;;;62.74;100.00;61586.06;4942466;28;20142;-78
2022/08/11 01:28:19;;;;;;;4.05;3.47;;;;;;;62.74;100.00;61586.06;4954444;29;20038;-80
2022/08/11 01:31:29;;;;;;;5.50;3.70;;;;;;;104.25;100.00;61586.06;4955566;28;20361;-79
2022/08/11 01:34:14;;;;;;;;;;;;;;;104.25;100.00;61586.06;4952279;29;20055;-80
2022/08/11 01:36:49;;;;;;;5.20;3.60;;;;;;;104.25;100.00;61586.06;4955523;28;20294;-80
2022/08/11 01:39:45;;;;;;;7.35;4.28;;;;;;;42.00;100.00;61586.06;4955599;28;20035;-79
2022/08/11 01:45:55;;;;;;;5.82;4.53;;;;;;;104.25;100.00;61586.06;4954549;28;20036;-79
2022/08/11 01:48:47;;;;;;;10.32;4.05;;;;;;;104.25;100.00;61586.06;4954026;28;20035;-80
2022/08/11 01:51:32;;;;;;;6.28;4.72;;;;;;;62.74;100.00;61586.06;4953298;28;20125;-80
2022/08/11 01:54:39;;;;;;;6.70;4.63;;;;;;;104.25;100.00;61586.06;4955331;28;20109;-79
2022/08/11 01:57:19;;;;;;;5.30;4.18;;;;;;;104.25;100.00;61586.06;4951707;29;20376;-79
2022/08/11 01:59:51;;;;;;;6.45;5.20;;;;;;;62.74;100.00;61586.06;4951883;28;20039;-80
2022/08/11 02:02:48;;;;;;;4.90;4.38;;;;;;;104.25;100.00;61586.06;4955422;28;20034;-80
2022/08/11 02:05:47;;;;;;;6.18;4.80;;;;;;;104.25;100.00;61586.06;4952284;28;20035;-80
2022/08/11 02:08:57;;;;;;;5.43;4.68;;;;;;;104.25;100.00;61586.06;4955415;29;20081;-81
2022/08/11 02:11:30;;;;;;;5.57;4.93;;;;;;;-144.47;100.00;61586.06;4905813;29;20044;-80
2022/08/11 02:14:19;;;;;;;6.20;4.45;;;;;;;-144.47;100.00;61586.06;4973414;28;20085;-79
2022/08/11 02:17:03;;;;;;;5.40;4.82;;;;;;;-144.47;100.00;61586.06;4974508;28;20106;-79
2022/08/11 02:25:58;;;;;;;5.93;5.28;;;;;;;-144.47;100.00;61586.06;4973440;28;20038;-78
2022/08/11 02:28:29;;;;;;;5.93;5.43;;;;;;;-144.47;100.00;61586.06;4973970;28;20038;-79
2022/08/11 02:34:05;;;;;;;4.60;4.20;;;;;;;-144.47;100.00;61586.06;4972854;28;20042;-80
2022/08/11 02:36:44;;;;;;;7.40;4.03;;;;;;;-144.47;100.00;61586.06;4973992;28;20497;-79
2022/08/11 02:39:15;;;;;;;3.40;3.20;;;;;;;-144.47;100.00;61586.06;4972733;28;20462;-80
2022/08/11 02:44:33;;;;;;;3.38;3.10;;;;;;;-144.47;100.00;61586.06;4974963;28;20391;-78
2022/08/11 02:47:14;;;;;;;3.70;3.30;;;;;;;-144.47;100.00;61586.06;4974026;28;20536;-76
2022/08/11 02:49:57;;;;;;;3.60;3.30;;;;;;;-144.47;100.00;61586.06;4970851;28;20389;-79
2022/08/11 02:52:29;;;;;;;6.43;3.05;;;;;;;-144.47;100.00;61586.06;4973797;28;20468;-79
2022/08/11 02:54:57;;;;;;;3.40;3.10;;;;;;;-144.47;100.00;61586.06;4974064;28;20395;-77
2022/08/11 02:57:35;;;;;;;3.55;2.80;;;;;;;-144.47;100.00;61586.06;4974458;28;20443;-78
2022/08/11 03:00:08;;;;;;;5.40;3.00;;;;;;;-144.47;100.00;61586.06;4973829;28;20027;-77
2022/08/11 03:03:08;;;;;;;4.28;2.60;;;;;;;-144.47;100.00;61586.06;4972893;28;20247;-79
2022/08/11 03:05:46;;;;;;;4.30;2.97;;;;;;;-144.47;100.00;61586.06;4973434;28;20435;-78
2022/08/11 03:08:20;;;;;;;3.60;2.78;;;;;;;22.52;100.00;61586.06;4971002;28;20046;-80
2022/08/11 03:17:32;;;;;;;4.65;2.72;;;;;;;-144.47;100.00;61586.06;4973198;28;20109;-80
2022/08/11 03:20:29;;;;;;;3.42;3.13;;;;;;;-144.47;100.00;61586.06;4956502;28;20038;-78
2022/08/11 03:23:17;;;;;;;4.15;3.63;;;;;;;-144.47;100.00;61586.06;4972176;28;20031;-80
2022/08/11 03:25:45;;;;;;;3.88;3.55;;;;;;;-144.47;100.00;61586.06;4970623;28;20089;-80
2022/08/11 03:28:33;;;;;;;6.40;4.25;;;;;;;-144.47;100.00;61586.06;4973118;28;20031;-81
2022/08/11 03:31:26;;;;;;;7.13;4.10;;;;;;;-144.47;100.00;61586.06;4973501;28;20074;-79
2022/08/11 03:34:03;;;;;;;6.50;4.32;;;;;;;-144.47;100.00;61586.06;4973677;28;20502;-79
2022/08/11 03:36:49;;;;;;;4.38;4.07;;;;;;;-144.47;100.00;61586.06;4973226;28;20042;-79
2022/08/11 03:39:21;;;;;;;7.72;3.97;;;;;;;-144.47;100.00;61586.06;4953304;28;20400;-80
2022/08/11 03:42:13;;;;;;;5.13;4.40;;;;;;;-144.47;100.00;61586.06;4977145;28;20395;-80
2022/08/11 03:45:01;;;;;;;5.72;4.22;;;;;;;-144.47;100.00;61586.06;4975149;28;20110;-79
2022/08/11 03:47:52;;;;;;;5.30;4.03;;;;;;;-144.47;100.00;61586.06;4976821;28;20507;-80
2022/08/11 03:50:18;;;;;;;;;;;;;;;-144.47;100.00;61586.06;4976349;28;20418;-79
2022/08/11 03:52:50;;;;;;;4.70;4.25;;;;;;;-144.47;100.00;61586.06;4977329;28;19922;-80
2022/08/11 03:55:50;;;;;;;6.88;4.20;;;;;;;-144.47;100.00;61586.06;4977444;28;20118;-80
2022/08/11 03:58:57;;;;;;;5.43;4.07;;;;;;;-144.47;100.00;61586.06;4975006;28;20132;-79
2022/08/11 04:01:34;;;;;;;4.30;3.90;;;;;;;-144.47;100.00;61586.06;4928416;28;20047;-80
2022/08/11 04:04:28;;;;;;;5.68;3.92;;;;;;;-144.47;100.00;61586.06;4977378;28;20451;-79
2022/08/11 04:07:12;;;;;;;4.28;3.88;;;;;;;-144.47;100.00;61586.06;4976252;28;20050;-79
2022/08/11 04:09:45;;;;;;;6.72;3.78;;;;;;;-144.47;100.00;61586.06;4977060;28;20390;-79
2022/08/11 04:12:17;;;;;;;5.80;3.90;;;;;;;-144.47;100.00;61586.06;4976165;28;20130;-78
2022/08/11 04:17:33;;;;;;;4.50;3.40;;;;;;;21.97;100.00;61586.06;4957956;28;20051;-79
2022/08/11 04:20:17;;;;;;;3.63;3.33;;;;;;;-144.47;100.00;61586.06;4976959;28;20038;-79
2022/08/11 04:22:53;;;;;;;4.63;3.45;;;;;;;-144.47;100.00;61586.06;4975361;28;20056;-79
2022/08/11 04:25:25;;;;;;;5.85;4.05;;;;;;;-144.47;100.00;61586.06;4959962;28;20383;-79
2022/08/11 04:27:59;;;;;;;5.00;4.60;;;;;;;-144.47;100.00;61586.06;4977255;28;20031;-79
2022/08/11 04:30:43;;;;;;;5.53;4.10;;;;;;;-144.47;100.00;61586.06;4976889;28;20067;-79
2022/08/11 04:33:46;;;;;;;3.85;3.58;;;;;;;-144.47;100.00;61586.06;4975760;28;20114;-79
2022/08/11 04:39:21;;;;;;;4.40;4.10;;;;;;;-144.47;100.00;61586.06;4977075;28;20118;-79
2022/08/11 04:45:17;;;;;;;6.32;3.90;;;;;;;-144.47;100.00;61586.06;4975990;28;20150;-79
2022/08/11 05:07:22;;;;;;;4.47;3.30;;;;;;;-144.47;100.00;61586.06;4972512;28;20038;-79
2022/08/11 05:10:12;;;;;;;4.20;3.22;;;;;;;-144.47;100.00;61586.06;4973427;28;20039;-79
2022/08/11 05:12:42;;;;;;;9.53;3.60;;;;;;;-144.47;100.00;61586.06;4974852;28;20043;-79
2022/08/11 05:35:30;;;;;;;4.43;3.20;;;;;;;-144.47;100.00;61586.06;4973225;28;20113;-79
2022/08/11 05:57:34;;;;;;;4.75;2.65;;;;;;;187.31;100.00;61586.06;4974010;28;20045;-79
2022/08/11 06:00:01;;;;;;;;;;;;;;;-144.47;100.00;61586.06;4974973;28;20034;-79
2022/08/11 06:02:27;;;;;;;3.15;2.95;;;;;;;-144.47;100.00;61586.06;4973640;28;19918;-79
2022/08/11 06:04:58;;;;;;;4.88;2.78;;;;;;;-144.47;100.00;61586.06;4974060;28;20039;-78
2022/08/11 06:07:30;;;;;;;3.95;2.65;;;;;;;-144.47;100.00;61586.06;4973997;28;20039;-78
2022/08/11 06:09:58;;;;;;;6.00;2.83;;;;;;;-144.47;100.00;61586.06;4973813;28;20041;-79
2022/08/11 06:12:28;;;;;;;7.45;3.13;;;;;;;187.31;100.00;61586.06;4973710;28;20051;-78
2022/08/11 06:14:55;;;;;;;4.13;3.30;;;;;;;-144.47;100.00;61586.06;4974207;28;20039;-78
2022/08/11 06:17:26;;;;;;;4.82;3.10;;;;;;;22.99;100.00;82016.69;4974002;28;20078;-78
2022/08/11 06:20:03;;;;;;;4.70;3.30;;;;;;;23.03;100.00;61586.06;4972249;28;20071;-78
2022/08/11 06:22:30;;;;;;;10.00;3.75;;;;;;;23.06;100.00;61586.06;4955701;28;20035;-79
2022/08/11 06:24:58;;;;;;;4.22;3.30;;;;;;;104.25;100.00;61586.06;4973687;28;20062;-78
2022/08/11 06:27:27;;;;;;;4.18;3.30;;;;;;;187.31;100.00;61586.06;4972586;28;20038;-78
2022/08/11 06:29:54;;;;;;;3.45;3.13;;;;;;;23.25;100.00;82052.03;4958580;28;20030;-79
2022/08/11 06:32:25;;;;;;;3.72;2.80;;;;;;;31.63;100.00;61586.06;4973943;28;20073;-81
2022/08/11 06:35:07;;;;;;;3.33;2.90;;;;;;;42.00;100.00;61586.06;4973520;28;20035;-81
2022/08/11 06:38:11;;;;;;;4.07;3.50;;;;;;;26.45;100.00;61586.06;4973039;28;20038;-77
2022/08/11 06:43:45;;;;;;;3.57;3.37;;;;;;;26.45;100.00;61586.06;4973388;28;20031;-78
2022/08/11 06:46:16;;;;;;;3.38;3.10;;;;;;;42.00;100.00;61586.06;4970804;28;20109;-78
2022/08/11 06:48:44;;;;;;;4.57;3.17;;;;;;;42.00;100.00;61586.06;4973131;28;20424;-79
2022/08/11 06:51:13;;;;;;;4.10;2.63;;;;;;;42.00;100.00;61586.06;4973529;28;20039;-79
2022/08/11 06:53:47;;;;;;;4.13;3.15;;;;;;;-144.47;100.00;61586.06;4973074;28;20029;-78
2022/08/11 07:02:02;;;;;;;3.97;3.10;;;;;;;31.63;100.00;61586.06;4970743;28;20065;-79
2022/08/11 07:04:43;;;;;;;4.35;3.17;;;;;;;62.74;100.00;61586.06;4972279;28;20045;-80
2022/08/11 07:15:49;;;;;;;4.95;3.00;;;;;;;42.00;100.00;61586.06;4969731;28;20043;-79
2022/08/11 07:29:54;;;;;;;5.93;2.90;;;;;;;-144.47;100.00;61586.06;4973193;28;20118;-79
2022/08/11 07:32:31;;;;;;;3.20;2.90;;;;;;;-144.47;100.00;61586.06;4955929;28;20030;-81
2022/08/11 07:35:06;;;;;;;3.13;2.72;;;;;;;-144.47;100.00;61586.06;4972686;28;20487;-81
2022/08/11 07:37:33;;;;;;;5.10;2.65;;;;;;;24.49;100.00;61586.06;4972767;28;20550;-80
2022/08/11 07:39:59;;;;;;;8.00;3.33;;;;;;;-144.47;100.00;61586.06;4972419;28;20038;-79
2022/08/11 07:42:34;;;;;;;3.08;2.65;;;;;;;-144.47;100.00;61586.06;4972395;28;20027;-80
2022/08/11 07:53:17;;;;;;;4.05;2.67;;;;;;;-144.47;100.00;61586.06;4972926;28;20041;-79
2022/08/11 07:55:44;;;;;;;4.22;3.10;;;;;;;-144.47;100.00;61586.06;4971648;28;20034;-80
2022/08/11 08:17:56;;;;;;;5.32;2.60;;;;;;;-144.47;100.00;61586.06;4952301;28;20504;-83
2022/08/11 08:20:27;;;;;;;3.67;2.65;;;;;;;-144.47;100.00;61586.06;4970882;28;20487;-82
2022/08/11 08:22:57;;;;;;;4.88;2.90;;;;;;;-144.47;100.00;61586.06;4971118;28;20122;-83
2022/08/11 08:25:29;;;;;;;3.80;2.67;;;;;;;-144.47;100.00;61586.06;4971951;28;20035;-82
2022/08/11 08:27:57;;;;;;;2.55;2.35;;;;;;;-144.47;100.00;61586.06;4975548;28;20407;-83
2022/08/11 08:33:12;;;;;;;4.95;2.70;;;;;;;25.71;100.00;61586.06;4974966;28;20035;-82
2022/08/11 08:35:40;;;;;;;2.97;2.53;;;;;;;-144.47;100.00;61586.06;4974498;28;20416;-83
2022/08/11 08:38:06;;;;;;;5.60;2.85;;;;;;;-144.47;100.00;61586.06;4973868;28;20229;-83
2022/08/11 08:40:32;;;;;;;3.00;2.80;;;;;;;-144.47;100.00;61586.06;4975172;28;20106;-82
2022/08/11 08:43:06;;;;;;;3.40;3.10;;;;;;;-144.47;100.00;61586.06;4974845;28;20459;-82
2022/08/11 08:45:34;;;;;;;4.38;3.10;;;;;;;-144.47;100.00;61586.06;4957883;28;20027;-83
2022/08/11 08:48:05;;;;;;;3.65;2.53;;;;;;;-144.47;100.00;61586.06;4975296;28;20039;-83
2022/08/11 08:53:27;;;;;;;5.13;3.00;;;;;;;-144.47;100.00;61586.06;4973891;28;20395;-83
2022/08/11 08:55:56;;;;;;;4.05;2.60;;;;;;;-144.47;100.00;61586.06;4973819;28;20427;-82
2022/08/11 08:58:23;;;;;;;5.25;2.90;;;;;;;-144.47;100.00;61586.06;4974934;28;20042;-83
2022/08/11 09:00:53;;;;;;;2.97;2.78;;;;;;;-144.47;100.00;61586.06;4957485;28;20466;-82
2022/08/11 09:03:19;;;;;;;3.00;2.73;;;;;;;-144.47;100.00;61586.06;4963951;28;20432;-83
2022/08/11 09:05:46;;;;;;;2.85;2.30;;;;;;;-144.47;100.00;61586.06;4974617;28;20089;-81
2022/08/11 09:08:16;;;;;;;2.60;2.20;;;;;;;-144.47;100.00;61586.06;4975239;28;20086;-82
2022/08/11 09:10:42;;;;;;;3.08;2.42;;;;;;;-144.47;100.00;61586.06;4975158;28;20034;-82
2022/08/11 09:13:08;;;;;;;2.75;2.55;;;;;;;-144.47;100.00;61586.06;4974808;28;20047;-81
2022/08/11 09:15:36;;;;;;;3.05;2.25;;;;;;;-144.47;100.00;61586.06;4970612;28;20039;-82
2022/08/11 09:18:04;;;;;;;2.63;2.35;;;;;;;-144.47;100.00;61586.06;4957476;28;20034;-83
2022/08/11 09:20:37;;;;;;;2.38;2.17;;;;;;;-144.47;100.00;61586.06;4974708;28;20094;-82
2022/08/11 09:28:42;;;;;;;2.53;2.28;;;;;;;-144.47;100.00;61586.06;4973992;28;20442;-82
2022/08/11 09:31:13;;;;;;;4.13;2.72;;;;;;;-144.47;100.00;61586.06;4974541;28;20542;-82
2022/08/11 09:33:40;;;;;;;2.97;2.30;;;;;;;-144.47;100.00;61586.06;4970934;28;20038;-82
2022/08/11 09:41:38;;;;;;;4.05;2.53;;;;;;;-144.47;100.00;61586.06;4972946;28;20034;-82
2022/08/11 09:46:52;;;;;;;2.65;2.45;;;;;;;-144.47;100.00;61586.06;4973949;28;20462;-83
2022/08/11 09:49:20;;;;;;;3.85;2.63;;;;;;;-144.47;100.00;61586.06;4974450;28;20034;-83
2022/08/11 09:51:48;;;;;;;5.20;2.55;;;;;;;-144.47;100.00;61586.06;4974254;28;20035;-83
2022/08/11 09:54:15;;;;;;;3.58;2.67;;;;;;;-144.47;100.00;61586.06;4975062;28;20395;-82
2022/08/11 09:59:26;;;;;;;2.60;2.40;;;;;;;-144.47;100.00;61586.06;4973131;28;20443;-83
2022/08/11 10:01:58;;;;;;;2.95;2.50;;;;;;;-144.47;100.00;61586.06;4957079;28;20499;-82
2022/08/11 10:04:34;;;;;;;4.15;2.90;;;;;;;-144.47;100.00;61586.06;4973652;28;20027;-82
2022/08/11 10:07:05;;;;;;;4.53;2.30;;;;;;;-144.47;100.00;61586.06;4974417;28;20541;-81
2022/08/11 10:09:49;;;;;;;3.15;2.05;;;;;;;29.04;100.00;61586.06;4976077;28;20041;-81
2022/08/11 10:12:23;;;;;;;3.75;2.40;;;;;;;29.04;100.00;61586.06;4971302;28;20046;-81
2022/08/11 10:20:34;;;;;;;3.38;2.33;;;;;;;29.04;100.00;61586.06;4973842;28;20444;-81
2022/08/11 10:28:31;;;;;;;2.80;2.28;;;;;;;62.74;100.00;61586.06;4973437;28;20395;-82
2022/08/11 10:34:02;;;;;;;2.75;2.40;;;;;;;29.04;100.00;61586.06;4973255;28;20750;-81
2022/08/11 10:36:50;;;;;;;2.97;2.40;;;;;;;-144.47;100.00;61586.06;4972810;28;20047;-81
2022/08/11 10:39:20;;;;;;;2.40;2.08;;;;;;;27.58;100.00;61586.06;4973968;28;20487;-82
2022/08/11 10:44:38;;;;;;;2.60;2.40;;;;;;;29.04;100.00;61586.06;4973449;28;20105;-82
2022/08/11 10:51:11;;;;;;;2.78;2.45;;;;;;;27.74;100.00;61586.06;4974855;28;20113;-82
2022/08/11 11:00:57;;;;;;;3.72;2.25;;;;;;;-144.47;100.00;61586.06;4973195;28;20034;-81
2022/08/11 11:03:29;;;;;;;2.45;2.25;;;;;;;29.04;100.00;61586.06;4973234;28;20077;-81
2022/08/11 11:06:06;;;;;;;2.70;2.50;;;;;;;31.63;100.00;61586.06;4955913;28;20038;-82
2022/08/11 11:08:53;;;;;;;2.85;2.58;;;;;;;29.04;100.00;61586.06;4955535;28;20063;-81
2022/08/11 11:19:37;;;;;;;3.83;2.42;;;;;;;187.31;100.00;61586.06;4975580;28;20427;-82
2022/08/11 11:22:36;;;;;;;2.75;2.55;;;;;;;-144.47;100.00;61586.06;4973287;28;20026;-80
2022/08/11 11:25:07;;;;;;;2.72;2.22;;;;;;;-144.47;100.00;61586.06;4971324;28;20386;-81
2022/08/11 11:27:53;;;;;;;4.63;2.33;;;;;;;-144.47;100.00;61586.06;4972729;28;20027;-79
2022/08/11 11:30:19;;;;;;;3.75;1.90;;;;;;;-144.47;100.00;61586.06;4971780;28;20031;-81
2022/08/11 11:33:19;;;;;;;2.50;2.30;;;;;;;-144.47;100.00;61586.06;4972858;28;20114;-81
2022/08/11 11:36:14;;;;;;;2.35;2.15;;;;;;;187.31;100.00;61586.06;4970056;28;20042;-81
2022/08/11 11:38:41;;;;;;;2.35;2.15;;;;;;;187.31;100.00;61586.06;4972918;28;20031;-81
2022/08/11 11:41:23;;;;;;;2.97;2.60;;;;;;;-144.47;100.00;61586.06;4973551;28;20060;-80
2022/08/11 11:43:50;;;;;;;2.80;2.40;;;;;;;-144.47;100.00;61586.06;4971208;28;20046;-81
2022/08/11 11:46:16;;;;;;;2.97;2.47;;;;;;;-144.47;100.00;61586.06;4973383;28;20440;-81
2022/08/11 11:48:42;;;;;;;2.90;2.20;;;;;;;-144.47;100.00;61586.06;4972619;28;20340;-81
2022/08/11 11:51:12;;;;;;;5.18;2.35;;;;;;;-144.47;100.00;61586.06;4973080;28;20031;-80
2022/08/11 11:53:41;;;;;;;;;;;;;;;-144.47;100.00;61586.06;4975959;28;20440;-81
2022/08/11 11:56:07;;;;;;;5.43;2.65;;;;;;;-144.47;100.00;61586.06;4972697;28;19918;-80
2022/08/11 12:01:21;;;;;;;2.50;2.30;;;;;;;-144.47;100.00;61586.06;4972260;28;20101;-81
2022/08/11 12:03:49;;;;;;;2.80;2.60;;;;;;;-144.47;100.00;61586.06;4959631;28;20063;-81
2022/08/11 12:06:20;;;;;;;4.38;2.42;;;;;;;-144.47;100.00;61586.06;4976550;28;20117;-80
2022/08/11 12:08:48;;;;;;;3.78;2.30;;;;;;;-144.47;100.00;61586.06;4976613;28;20526;-81
2022/08/11 12:14:03;;;;;;;2.30;2.10;;;;;;;-144.47;100.00;61586.06;4976176;28;20059;-81
2022/08/11 12:16:29;;;;;;;4.72;2.88;;;;;;;-144.47;100.00;61586.06;4975659;28;20038;-81
2022/08/11 12:18:58;;;;;;;9.30;2.58;;;;;;;-144.47;100.00;61586.06;4976723;28;20480;-81
2022/08/11 12:21:26;;;;;;;2.63;2.30;;;;;;;104.25;100.00;61586.06;4976500;28;20434;-80
2022/08/11 12:29:19;;;;;;;2.38;2.17;;;;;;;-144.47;100.00;61586.06;4974329;28;20034;-79
2022/08/11 12:31:46;;;;;;;2.63;2.42;;;;;;;187.31;100.00;61586.06;4976068;28;20431;-80
2022/08/11 12:34:14;;;;;;;2.53;2.15;;;;;;;31.63;100.00;61586.06;4958875;28;20110;-81
2022/08/11 12:36:49;;;;;;;2.67;2.10;;;;;;;31.63;100.00;61586.06;4975692;28;20034;-81
2022/08/11 12:39:19;;;;;;;2.47;2.28;;;;;;;31.23;100.00;61586.06;4976496;28;20376;-80
2022/08/11 12:47:19;;;;;;;4.10;2.00;;;;;;;34.22;100.00;61586.06;4974251;28;20035;-81
2022/08/11 12:52:44;;;;;;;10.05;2.33;;;;;;;-144.47;100.00;61586.06;4975933;28;20109;-82
2022/08/11 12:58:14;;;;;;;2.95;2.22;;;;;;;32.80;100.00;61586.06;4955736;28;20444;-81
2022/08/11 12:58:17;;;;;;;3.50;1.90;;;;;;;-144.47;100.00;61586.06;4976052;28;20129;-81
2022/08/11 13:06:18;;;;;;;2.40;2.10;;;;;;;34.64;100.00;83591.00;4974968;28;20395;-81
2022/08/11 13:08:45;;;;;;;3.83;1.95;;;;;;;35.36;100.00;61586.06;4975814;28;20399;-81
2022/08/11 13:13:56;;;;;;;2.65;2.05;;;;;;;36.57;100.00;61586.06;4974681;28;20122;-81
2022/08/11 13:16:26;;;;;;;2.97;2.10;;;;;;;-144.47;100.00;61586.06;4976070;28;20387;-80
2022/08/11 13:18:53;;;;;;;3.42;2.65;;;;;;;37.03;100.00;61586.06;4975842;28;20038;-81
2022/08/11 13:21:20;;;;;;;2.95;2.10;;;;;;;38.11;100.00;61586.06;4975796;28;20382;-81
2022/08/11 13:23:46;;;;;;;2.45;2.13;;;;;;;38.12;100.00;61586.06;4975403;28;20041;-81
2022/08/11 13:26:12;;;;;;;2.15;1.95;;;;;;;38.15;100.00;61586.06;4975529;28;20422;-81
2022/08/11 13:28:39;;;;;;;2.30;2.20;;;;;;;38.36;100.00;61586.06;4976602;28;20383;-80
2022/08/11 13:31:11;;;;;;;2.28;2.08;;;;;;;38.58;100.00;61586.06;4972056;28;20094;-81
2022/08/11 13:33:42;;;;;;;3.35;2.42;;;;;;;39.05;100.00;84184.72;4958096;28;20407;-81
2022/08/11 13:36:08;;;;;;;2.15;2.05;;;;;;;39.07;100.00;61586.06;4972096;28;20042;-81
2022/08/11 13:38:37;;;;;;;2.60;2.20;;;;;;;38.94;100.00;61586.06;4971385;28;20386;-81
2022/08/11 13:41:36;;;;;;;2.33;2.22;;;;;;;38.73;100.00;61586.06;4975294;28;20490;-81
2022/08/11 13:43:51;;;;;;;2.35;2.15;;;;;;;38.96;100.00;61586.06;4975293;28;20424;-80
2022/08/11 13:46:21;;;;;;;3.70;2.50;;;;;;;39.34;100.00;61586.06;4975351;28;20081;-81
2022/08/11 13:48:48;;;;;;;3.53;2.58;;;;;;;39.33;100.00;61586.06;4974795;28;20050;-81
2022/08/11 13:51:29;;;;;;;2.65;2.00;;;;;;;39.16;100.00;61586.06;4975405;28;20403;-81
2022/08/11 13:54:00;;;;;;;3.47;2.10;;;;;;;39.01;100.00;61586.06;4975334;28;20031;-80
2022/08/11 13:56:26;;;;;;;4.15;2.20;;;;;;;39.08;100.00;61586.06;4974389;28;20553;-81
2022/08/11 13:58:54;;;;;;;3.13;2.30;;;;;;;40.06;100.00;61586.06;4975039;28;20066;-81
2022/08/11 14:01:23;;;;;;;2.38;2.20;;;;;;;39.97;100.00;104042.75;4957737;28;20357;-80
2022/08/11 14:03:49;;;;;;;2.03;1.93;;;;;;;40.38;100.00;61586.06;4974800;28;20142;-80
2022/08/11 14:06:18;;;;;;;5.75;2.10;;;;;;;40.62;100.00;61586.06;4974565;28;20057;-80
2022/08/11 14:08:45;;;;;;;2.30;2.10;;;;;;;40.96;100.00;99591.06;4974169;28;20046;-81
2022/08/11 14:14:01;;;;;;;4.75;2.17;;;;;;;62.74;100.00;61586.06;4973338;28;20129;-81
2022/08/11 14:16:31;;;;;;;2.38;2.17;;;;;;;43.30;100.00;61586.06;4973997;28;20035;-81
2022/08/11 14:19:03;;;;;;;2.00;1.90;;;;;;;41.89;100.00;61586.06;4976244;28;20043;-80
2022/08/11 14:22:20;;;;;;;2.15;1.95;;;;;;;41.72;100.00;61586.06;4974049;28;20027;-81
2022/08/11 14:24:21;;;;;;;3.83;2.15;;;;;;;-144.47;100.00;61586.06;4959700;28;20039;-81
2022/08/11 14:26:50;;;;;;;2.28;1.90;;;;;;;43.30;100.00;61586.06;4953481;28;20038;-81
2022/08/11 14:29:20;;;;;;;2.57;1.83;;;;;;;41.95;100.00;61586.06;4971327;28;20057;-81
2022/08/11 14:32:07;;;;;;;2.53;2.10;;;;;;;41.68;100.00;61586.06;4971072;28;20054;-81
2022/08/11 14:34:37;;;;;;;3.25;1.90;;;;;;;-144.47;100.00;61586.06;4973025;28;20070;-80
2022/08/11 14:37:07;;;;;;;3.35;1.90;;;;;;;41.20;100.00;61586.06;4974027;28;20038;-81
2022/08/11 14:39:47;;;;;;;2.75;2.03;;;;;;;42.00;100.00;61586.06;4975442;28;20494;-81
2022/08/11 14:48:16;;;;;;;2.45;2.25;;;;;;;-144.47;100.00;61586.06;4971280;28;20069;-81
2022/08/11 14:50:42;;;;;;;2.22;2.03;;;;;;;41.19;100.00;61586.06;4973236;28;20035;-81
2022/08/11 14:53:10;;;;;;;2.60;2.00;;;;;;;38.82;100.00;61586.06;4973787;28;20023;-81
2022/08/11 14:58:25;;;;;;;3.40;2.88;;;;;;;37.80;100.00;61586.06;4971593;28;20041;-81
2022/08/11 15:00:57;;;;;;;2.33;2.13;;;;;;;37.11;100.00;61586.06;4973411;28;20039;-81
2022/08/11 15:03:25;;;;;;;3.60;2.00;;;;;;;104.25;100.00;61586.06;4957530;28;20119;-80
2022/08/11 15:05:55;;;;;;;2.60;2.40;;;;;;;-144.47;100.00;61586.06;4973674;28;20531;-81
2022/08/11 15:08:53;;;;;;;2.20;2.00;;;;;;;-144.47;100.00;61586.06;4973460;28;20038;-81
2022/08/11 15:17:06;;;;;;;2.60;2.40;;;;;;;42.00;100.00;61586.06;4894812;29;20051;-80
2022/08/11 15:17:09;;;;;;;4.13;2.15;;;;;;;33.88;100.00;61586.06;4894840;29;20521;-81
2022/08/11 15:24:17;;;;;;;2.17;1.98;;;;;;;33.49;100.00;61586.06;4894300;29;20056;-79
2022/08/11 15:25:08;;;;;;;2.97;2.30;;;;;;;104.25;100.00;61586.06;4895122;29;20119;-81
2022/08/11 15:38:48;;;;;;;1.88;1.70;;;;;;;-144.47;100.00;61586.06;4894344;29;20104;-80
2022/08/11 15:46:54;;;;;;;2.65;2.00;;;;;;;-144.47;100.00;61586.06;4971917;28;20483;-80
2022/08/11 15:49:40;;;;;;;2.10;2.00;;;;;;;-144.47;100.00;61586.06;4972642;28;20038;-80
2022/08/11 15:52:09;;;;;;;2.55;1.90;;;;;;;-144.47;100.00;61586.06;4970131;28;20098;-80
2022/08/11 15:54:40;;;;;;;3.55;2.10;;;;;;;31.41;100.00;61586.06;4951300;28;20030;-81
2022/08/11 15:57:08;;;;;;;2.05;1.90;;;;;;;-144.47;100.00;61586.06;4968824;28;20479;-80
2022/08/11 16:04:52;;;;;;;2.58;2.20;;;;;;;-144.47;100.00;61586.06;4972686;28;20089;-79
2022/08/11 16:07:25;;;;;;;3.63;2.00;;;;;;;-144.47;100.00;61586.06;4974072;28;20501;-80
2022/08/11 16:10:20;;;;;;;3.83;2.30;;;;;;;-144.47;100.00;61586.06;4972728;28;20039;-80
2022/08/11 16:18:48;;;;;;;3.60;2.40;;;;;;;30.93;100.00;61586.06;4972201;28;20483;-80
2022/08/11 16:21:17;;;;;;;3.97;2.00;;;;;;;104.25;100.00;61586.06;4971486;28;20034;-80
2022/08/11 16:23:46;;;;;;;5.00;2.90;;;;;;;-144.47;100.00;61586.06;4972400;28;20120;-80
2022/08/11 16:26:16;;;;;;;6.97;2.30;;;;;;;-144.47;100.00;61586.06;4972455;28;20468;-80
2022/08/11 16:28:44;;;;;;;3.47;2.38;;;;;;;-144.47;100.00;61586.06;4972217;28;20970;-80
2022/08/11 16:31:11;;;;;;;4.40;1.90;;;;;;;-144.47;100.00;61586.06;4972584;28;20490;-80
2022/08/11 16:33:40;;;;;;;3.22;2.00;;;;;;;30.97;100.00;61586.06;4970636;28;20037;-80